aviador You're here:

SAZS Decoded Metar

SAN CARLOS DE BARILOCH in ARGENTINA
Report Time2018-07-19 20:00:00
UTC Time2018-07-19 21:04:37
Flight Rules vfr VFR
Wind130° at 12 kt
W.Decomp.*RWY 11: 11.7 kt HW 2.5 kt RCW
W.Rank130° ranks 23
Current wind is above 130° avg. (5.7)
Visibility9999 m
Phenomena:N/A
Clouds:Scattered 034 Hf
Scattered 042 Hf
Expected CloudBase > 2,400 ft AGL from Temp-Dew spread
CeilingNone
Temp02°C (ISA -8)
Dew Point-4°C (65% RH)
AAT-4.8°C
QNH1029 hPa
Density Alt1,378 ft
Elevation2,756 ft
Report Wrong Elevation
Raw Report
SAZS 192000Z 13012KT 9999 SCT034 SCT042 02/M04 Q1029 NOSIG=

Extra information for SAZS:More info

Metar Taf Metar & Taf Last 4 Metars F.Rules Stats Wind Profile Meteogram Temp Stats Airport Information Weather charts Add Link Nearby VenuesMetar ALERT Operation Metar Decoded Social comments